sensor_id;sensor_type;location;lat;lon;timestamp;temperature;humidity
14893;DHT22;7538;53.626;9.906;2023-03-23T00:00:06;11.40;99.90
14893;DHT22;7538;53.626;9.906;2023-03-23T00:02:34;11.40;99.90
14893;DHT22;7538;53.626;9.906;2023-03-23T00:05:03;11.40;99.90
14893;DHT22;7538;53.626;9.906;2023-03-23T00:07:30;11.30;99.90
14893;DHT22;7538;53.626;9.906;2023-03-23T00:09:58;11.30;99.90
14893;DHT22;7538;53.626;9.906;2023-03-23T00:12:31;11.30;99.90
14893;DHT22;7538;53.626;9.906;2023-03-23T00:14:59;11.30;99.90
14893;DHT22;7538;53.626;9.906;2023-03-23T00:17:27;11.20;99.90
14893;DHT22;7538;53.626;9.906;2023-03-23T00:19:54;11.20;99.90
14893;DHT22;7538;53.626;9.906;2023-03-23T00:22:22;11.10;99.90
14893;DHT22;7538;53.626;9.906;2023-03-23T00:24:50;11.10;99.90
14893;DHT22;7538;53.626;9.906;2023-03-23T00:27:17;11.20;99.90
14893;DHT22;7538;53.626;9.906;2023-03-23T00:29:48;11.20;99.90
14893;DHT22;7538;53.626;9.906;2023-03-23T00:32:18;11.20;99.90
14893;DHT22;7538;53.626;9.906;2023-03-23T00:34:46;11.20;99.90
14893;DHT22;7538;53.626;9.906;2023-03-23T00:37:15;11.20;99.90
14893;DHT22;7538;53.626;9.906;2023-03-23T00:39:43;11.10;99.90
14893;DHT22;7538;53.626;9.906;2023-03-23T00:42:12;11.10;99.90
14893;DHT22;7538;53.626;9.906;2023-03-23T00:44:39;11.10;99.90
14893;DHT22;7538;53.626;9.906;2023-03-23T00:47:08;11.10;99.90
14893;DHT22;7538;53.626;9.906;2023-03-23T00:49:36;11.20;99.90
14893;DHT22;7538;53.626;9.906;2023-03-23T00:52:04;11.20;99.90
14893;DHT22;7538;53.626;9.906;2023-03-23T00:54:31;11.20;99.90
14893;DHT22;7538;53.626;9.906;2023-03-23T00:56:58;11.20;99.90
14893;DHT22;7538;53.626;9.906;2023-03-23T00:59:25;11.20;99.90
14893;DHT22;7538;53.626;9.906;2023-03-23T01:01:52;11.20;99.90
14893;DHT22;7538;53.626;9.906;2023-03-23T01:04:20;11.20;99.90
14893;DHT22;7538;53.626;9.906;2023-03-23T01:06:49;11.20;99.90
14893;DHT22;7538;53.626;9.906;2023-03-23T01:09:18;11.20;99.90
14893;DHT22;7538;53.626;9.906;2023-03-23T01:11:47;11.20;99.90
14893;DHT22;7538;53.626;9.906;2023-03-23T01:14:16;11.20;99.90
14893;DHT22;7538;53.626;9.906;2023-03-23T01:16:44;11.20;99.90
14893;DHT22;7538;53.626;9.906;2023-03-23T01:19:11;11.20;99.90
14893;DHT22;7538;53.626;9.906;2023-03-23T01:21:39;11.20;99.90
14893;DHT22;7538;53.626;9.906;2023-03-23T01:24:07;11.20;99.90
14893;DHT22;7538;53.626;9.906;2023-03-23T01:26:33;11.30;99.90
14893;DHT22;7538;53.626;9.906;2023-03-23T01:29:00;12.90;99.90
14893;DHT22;7538;53.626;9.906;2023-03-23T01:31:27;11.20;99.90
14893;DHT22;7538;53.626;9.906;2023-03-23T01:33:54;9.00;99.90
14893;DHT22;7538;53.626;9.906;2023-03-23T01:36:23;11.20;99.90
14893;DHT22;7538;53.626;9.906;2023-03-23T01:38:52;11.20;99.90
14893;DHT22;7538;53.626;9.906;2023-03-23T01:41:20;11.20;99.90
14893;DHT22;7538;53.626;9.906;2023-03-23T01:43:54;11.30;99.90
14893;DHT22;7538;53.626;9.906;2023-03-23T01:46:21;11.20;99.90
14893;DHT22;7538;53.626;9.906;2023-03-23T01:48:49;11.30;99.90
14893;DHT22;7538;53.626;9.906;2023-03-23T01:51:19;11.30;99.90
14893;DHT22;7538;53.626;9.906;2023-03-23T01:53:50;11.40;99.90
14893;DHT22;7538;53.626;9.906;2023-03-23T01:56:22;11.40;99.90
14893;DHT22;7538;53.626;9.906;2023-03-23T01:58:51;11.40;99.90
14893;DHT22;7538;53.626;9.906;2023-03-23T02:01:19;11.40;99.90
14893;DHT22;7538;53.626;9.906;2023-03-23T02:03:51;11.50;99.90
14893;DHT22;7538;53.626;9.906;2023-03-23T02:06:19;11.50;99.90
14893;DHT22;7538;53.626;9.906;2023-03-23T02:08:48;11.50;99.90
14893;DHT22;7538;53.626;9.906;2023-03-23T02:11:17;11.50;99.90
14893;DHT22;7538;53.626;9.906;2023-03-23T02:13:46;11.50;99.90
14893;DHT22;7538;53.626;9.906;2023-03-23T02:16:20;11.50;99.90
14893;DHT22;7538;53.626;9.906;2023-03-23T02:18:55;11.50;99.90
14893;DHT22;7538;53.626;9.906;2023-03-23T02:24:57;11.60;99.90
14893;DHT22;7538;53.626;9.906;2023-03-23T02:27:45;11.50;99.90
14893;DHT22;7538;53.626;9.906;2023-03-23T02:30:37;11.60;99.90
14893;DHT22;7538;53.626;9.906;2023-03-23T02:36:10;11.30;99.90
14893;DHT22;7538;53.626;9.906;2023-03-23T02:38:44;11.30;99.90
14893;DHT22;7538;53.626;9.906;2023-03-23T02:41:19;11.30;99.90
14893;DHT22;7538;53.626;9.906;2023-03-23T02:43:48;11.40;99.90
14893;DHT22;7538;53.626;9.906;2023-03-23T02:46:16;11.40;99.90
14893;DHT22;7538;53.626;9.906;2023-03-23T02:48:46;11.40;99.90
14893;DHT22;7538;53.626;9.906;2023-03-23T02:51:16;11.40;99.90
14893;DHT22;7538;53.626;9.906;2023-03-23T02:53:45;11.50;99.90
14893;DHT22;7538;53.626;9.906;2023-03-23T02:56:13;11.50;99.90
14893;DHT22;7538;53.626;9.906;2023-03-23T02:58:41;11.50;99.90
14893;DHT22;7538;53.626;9.906;2023-03-23T03:04:03;11.40;99.90
14893;DHT22;7538;53.626;9.906;2023-03-23T03:06:34;11.40;99.90
14893;DHT22;7538;53.626;9.906;2023-03-23T03:09:04;11.30;99.90
14893;DHT22;7538;53.626;9.906;2023-03-23T03:11:35;11.30;99.90
14893;DHT22;7538;53.626;9.906;2023-03-23T03:14:06;11.30;99.90
14893;DHT22;7538;53.626;9.906;2023-03-23T03:16:39;11.30;99.90
14893;DHT22;7538;53.626;9.906;2023-03-23T03:19:11;11.30;99.90
14893;DHT22;7538;53.626;9.906;2023-03-23T03:21:42;11.30;99.90
14893;DHT22;7538;53.626;9.906;2023-03-23T03:24:11;11.30;99.90
14893;DHT22;7538;53.626;9.906;2023-03-23T03:26:40;11.30;99.90
14893;DHT22;7538;53.626;9.906;2023-03-23T03:29:13;11.30;99.90
14893;DHT22;7538;53.626;9.906;2023-03-23T03:31:43;11.30;99.90
14893;DHT22;7538;53.626;9.906;2023-03-23T03:34:13;11.30;99.90
14893;DHT22;7538;53.626;9.906;2023-03-23T03:36:44;11.30;99.90
14893;DHT22;7538;53.626;9.906;2023-03-23T03:39:13;11.30;99.90
14893;DHT22;7538;53.626;9.906;2023-03-23T03:41:41;11.30;99.90
14893;DHT22;7538;53.626;9.906;2023-03-23T03:44:09;11.30;99.90
14893;DHT22;7538;53.626;9.906;2023-03-23T03:46:36;11.30;99.90
14893;DHT22;7538;53.626;9.906;2023-03-23T03:49:04;11.30;99.90
14893;DHT22;7538;53.626;9.906;2023-03-23T03:51:34;11.30;99.90
14893;DHT22;7538;53.626;9.906;2023-03-23T03:54:02;11.40;99.90
14893;DHT22;7538;53.626;9.906;2023-03-23T03:56:28;11.40;99.90
14893;DHT22;7538;53.626;9.906;2023-03-23T03:58:57;11.40;99.90
14893;DHT22;7538;53.626;9.906;2023-03-23T04:01:25;11.30;99.90
14893;DHT22;7538;53.626;9.906;2023-03-23T04:03:51;11.30;99.90
14893;DHT22;7538;53.626;9.906;2023-03-23T04:06:18;11.40;99.90
14893;DHT22;7538;53.626;9.906;2023-03-23T04:08:47;11.50;99.90
14893;DHT22;7538;53.626;9.906;2023-03-23T04:11:14;11.50;99.90
14893;DHT22;7538;53.626;9.906;2023-03-23T04:13:41;11.50;99.90
14893;DHT22;7538;53.626;9.906;2023-03-23T04:16:08;11.60;99.90
14893;DHT22;7538;53.626;9.906;2023-03-23T04:18:35;11.70;99.90
14893;DHT22;7538;53.626;9.906;2023-03-23T04:21:03;12.40;99.90
14893;DHT22;7538;53.626;9.906;2023-03-23T04:23:33;11.80;99.90
14893;DHT22;7538;53.626;9.906;2023-03-23T04:26:03;11.80;99.90
14893;DHT22;7538;53.626;9.906;2023-03-23T04:28:30;11.90;99.90
14893;DHT22;7538;53.626;9.906;2023-03-23T04:31:00;11.90;99.90
14893;DHT22;7538;53.626;9.906;2023-03-23T04:33:29;11.90;99.90
14893;DHT22;7538;53.626;9.906;2023-03-23T04:35:59;11.90;99.90
14893;DHT22;7538;53.626;9.906;2023-03-23T04:38:27;12.00;99.90
14893;DHT22;7538;53.626;9.906;2023-03-23T04:40:55;12.00;99.90
14893;DHT22;7538;53.626;9.906;2023-03-23T04:43:23;12.00;99.90
14893;DHT22;7538;53.626;9.906;2023-03-23T04:45:53;12.00;99.90
14893;DHT22;7538;53.626;9.906;2023-03-23T04:48:22;12.00;99.90
14893;DHT22;7538;53.626;9.906;2023-03-23T04:50:48;12.00;99.90
14893;DHT22;7538;53.626;9.906;2023-03-23T04:53:16;12.00;99.90
14893;DHT22;7538;53.626;9.906;2023-03-23T04:55:43;12.00;99.90
14893;DHT22;7538;53.626;9.906;2023-03-23T04:58:11;12.00;99.90
14893;DHT22;7538;53.626;9.906;2023-03-23T05:00:42;12.00;99.90
14893;DHT22;7538;53.626;9.906;2023-03-23T05:03:15;12.00;99.90
14893;DHT22;7538;53.626;9.906;2023-03-23T05:05:42;12.00;99.90
14893;DHT22;7538;53.626;9.906;2023-03-23T05:08:12;11.90;99.90
14893;DHT22;7538;53.626;9.906;2023-03-23T05:10:39;12.00;99.90
14893;DHT22;7538;53.626;9.906;2023-03-23T05:13:06;12.00;99.90
14893;DHT22;7538;53.626;9.906;2023-03-23T05:15:33;12.00;99.90
14893;DHT22;7538;53.626;9.906;2023-03-23T05:18:01;14.30;99.90
14893;DHT22;7538;53.626;9.906;2023-03-23T05:20:28;12.00;99.90
14893;DHT22;7538;53.626;9.906;2023-03-23T05:22:55;12.00;99.90
14893;DHT22;7538;53.626;9.906;2023-03-23T05:25:24;11.90;99.90
14893;DHT22;7538;53.626;9.906;2023-03-23T05:27:51;12.00;99.90
14893;DHT22;7538;53.626;9.906;2023-03-23T05:30:19;12.00;99.90
14893;DHT22;7538;53.626;9.906;2023-03-23T05:32:46;12.00;99.90
14893;DHT22;7538;53.626;9.906;2023-03-23T05:35:18;12.00;99.90
14893;DHT22;7538;53.626;9.906;2023-03-23T05:37:46;12.00;99.90
14893;DHT22;7538;53.626;9.906;2023-03-23T05:40:13;12.10;99.90
14893;DHT22;7538;53.626;9.906;2023-03-23T05:42:41;12.00;99.90
14893;DHT22;7538;53.626;9.906;2023-03-23T05:45:09;12.00;99.90
14893;DHT22;7538;53.626;9.906;2023-03-23T05:47:36;12.10;99.90
14893;DHT22;7538;53.626;9.906;2023-03-23T05:50:04;12.00;99.90
14893;DHT22;7538;53.626;9.906;2023-03-23T05:52:33;12.10;99.90
14893;DHT22;7538;53.626;9.906;2023-03-23T05:55:00;12.00;99.90
14893;DHT22;7538;53.626;9.906;2023-03-23T05:57:29;12.10;99.90
14893;DHT22;7538;53.626;9.906;2023-03-23T05:59:56;14.60;99.90
14893;DHT22;7538;53.626;9.906;2023-03-23T06:02:24;12.10;99.90
14893;DHT22;7538;53.626;9.906;2023-03-23T06:04:53;12.10;99.90
14893;DHT22;7538;53.626;9.906;2023-03-23T06:07:23;12.00;99.90
14893;DHT22;7538;53.626;9.906;2023-03-23T06:09:51;12.00;99.90
14893;DHT22;7538;53.626;9.906;2023-03-23T06:12:18;12.00;99.90
14893;DHT22;7538;53.626;9.906;2023-03-23T06:14:46;12.00;99.90
14893;DHT22;7538;53.626;9.906;2023-03-23T06:17:14;12.00;99.90
14893;DHT22;7538;53.626;9.906;2023-03-23T06:19:40;12.00;99.90
14893;DHT22;7538;53.626;9.906;2023-03-23T06:22:07;11.90;99.90
14893;DHT22;7538;53.626;9.906;2023-03-23T06:24:34;11.90;99.90
14893;DHT22;7538;53.626;9.906;2023-03-23T06:27:02;11.90;99.90
14893;DHT22;7538;53.626;9.906;2023-03-23T06:29:29;12.00;99.90
14893;DHT22;7538;53.626;9.906;2023-03-23T06:31:59;12.10;99.90
14893;DHT22;7538;53.626;9.906;2023-03-23T06:34:27;12.30;99.90
14893;DHT22;7538;53.626;9.906;2023-03-23T06:36:55;12.60;99.90
14893;DHT22;7538;53.626;9.906;2023-03-23T06:39:22;12.70;99.90
14893;DHT22;7538;53.626;9.906;2023-03-23T06:41:49;12.90;99.90
14893;DHT22;7538;53.626;9.906;2023-03-23T06:44:17;13.10;99.90
14893;DHT22;7538;53.626;9.906;2023-03-23T06:46:44;13.20;99.90
14893;DHT22;7538;53.626;9.906;2023-03-23T06:49:11;16.80;99.90
14893;DHT22;7538;53.626;9.906;2023-03-23T06:51:38;13.00;99.90
14893;DHT22;7538;53.626;9.906;2023-03-23T06:54:05;13.00;99.90
14893;DHT22;7538;53.626;9.906;2023-03-23T06:56:32;13.00;99.90
14893;DHT22;7538;53.626;9.906;2023-03-23T06:58:59;12.90;99.90
14893;DHT22;7538;53.626;9.906;2023-03-23T07:01:27;13.00;99.90
14893;DHT22;7538;53.626;9.906;2023-03-23T07:03:55;13.10;99.90
14893;DHT22;7538;53.626;9.906;2023-03-23T07:06:23;13.00;99.90
14893;DHT22;7538;53.626;9.906;2023-03-23T07:08:51;13.20;99.90
14893;DHT22;7538;53.626;9.906;2023-03-23T07:11:18;13.30;99.90
14893;DHT22;7538;53.626;9.906;2023-03-23T07:13:45;13.80;99.90
14893;DHT22;7538;53.626;9.906;2023-03-23T07:16:12;14.20;99.90
14893;DHT22;7538;53.626;9.906;2023-03-23T07:18:40;14.40;99.90
14893;DHT22;7538;53.626;9.906;2023-03-23T07:21:07;14.40;99.90
14893;DHT22;7538;53.626;9.906;2023-03-23T07:23:34;14.30;99.90
14893;DHT22;7538;53.626;9.906;2023-03-23T07:26:01;14.10;99.90
14893;DHT22;7538;53.626;9.906;2023-03-23T07:28:29;14.00;99.90
14893;DHT22;7538;53.626;9.906;2023-03-23T07:30:56;13.90;99.90
14893;DHT22;7538;53.626;9.906;2023-03-23T07:33:22;13.70;99.90
14893;DHT22;7538;53.626;9.906;2023-03-23T07:35:51;13.80;99.90
14893;DHT22;7538;53.626;9.906;2023-03-23T07:38:17;13.90;99.90
14893;DHT22;7538;53.626;9.906;2023-03-23T07:40:45;13.90;99.90
14893;DHT22;7538;53.626;9.906;2023-03-23T07:43:12;13.90;99.90
14893;DHT22;7538;53.626;9.906;2023-03-23T07:45:39;13.80;99.90
14893;DHT22;7538;53.626;9.906;2023-03-23T07:48:06;13.70;99.90
14893;DHT22;7538;53.626;9.906;2023-03-23T07:50:33;13.60;99.90
14893;DHT22;7538;53.626;9.906;2023-03-23T07:53:04;13.50;99.90
14893;DHT22;7538;53.626;9.906;2023-03-23T07:55:31;13.40;99.90
14893;DHT22;7538;53.626;9.906;2023-03-23T07:57:59;13.30;99.90
14893;DHT22;7538;53.626;9.906;2023-03-23T08:00:26;13.20;99.90
14893;DHT22;7538;53.626;9.906;2023-03-23T08:02:54;13.20;99.90
14893;DHT22;7538;53.626;9.906;2023-03-23T08:05:22;13.20;99.90
14893;DHT22;7538;53.626;9.906;2023-03-23T08:07:51;12.90;99.90
14893;DHT22;7538;53.626;9.906;2023-03-23T08:10:21;12.60;99.90
14893;DHT22;7538;53.626;9.906;2023-03-23T08:12:52;12.20;99.90
14893;DHT22;7538;53.626;9.906;2023-03-23T08:15:19;12.00;99.90
14893;DHT22;7538;53.626;9.906;2023-03-23T08:17:47;11.80;99.90
14893;DHT22;7538;53.626;9.906;2023-03-23T08:20:16;11.60;99.90
14893;DHT22;7538;53.626;9.906;2023-03-23T08:22:45;11.40;99.90
14893;DHT22;7538;53.626;9.906;2023-03-23T08:25:15;11.40;99.90
14893;DHT22;7538;53.626;9.906;2023-03-23T08:27:44;11.40;99.90
14893;DHT22;7538;53.626;9.906;2023-03-23T08:30:14;11.40;99.90
14893;DHT22;7538;53.626;9.906;2023-03-23T08:32:41;11.40;99.90
14893;DHT22;7538;53.626;9.906;2023-03-23T08:35:09;11.40;99.90
14893;DHT22;7538;53.626;9.906;2023-03-23T08:37:36;11.50;99.90
14893;DHT22;7538;53.626;9.906;2023-03-23T08:40:05;11.50;99.90
14893;DHT22;7538;53.626;9.906;2023-03-23T08:42:34;11.60;99.90
14893;DHT22;7538;53.626;9.906;2023-03-23T08:45:04;11.60;99.90
14893;DHT22;7538;53.626;9.906;2023-03-23T08:47:31;11.70;99.90
14893;DHT22;7538;53.626;9.906;2023-03-23T08:49:58;11.80;99.90
14893;DHT22;7538;53.626;9.906;2023-03-23T08:52:25;12.00;99.90
14893;DHT22;7538;53.626;9.906;2023-03-23T08:54:52;12.30;99.90
14893;DHT22;7538;53.626;9.906;2023-03-23T08:57:19;12.60;99.90
14893;DHT22;7538;53.626;9.906;2023-03-23T08:59:46;12.90;99.90
14893;DHT22;7538;53.626;9.906;2023-03-23T09:02:14;13.00;99.90
14893;DHT22;7538;53.626;9.906;2023-03-23T09:04:42;13.10;99.90
14893;DHT22;7538;53.626;9.906;2023-03-23T09:07:09;13.30;99.90
14893;DHT22;7538;53.626;9.906;2023-03-23T09:09:37;13.50;99.90
14893;DHT22;7538;53.626;9.906;2023-03-23T09:12:05;13.60;99.90
14893;DHT22;7538;53.626;9.906;2023-03-23T09:14:32;13.70;99.90
14893;DHT22;7538;53.626;9.906;2023-03-23T09:16:59;13.80;99.90
14893;DHT22;7538;53.626;9.906;2023-03-23T09:19:28;13.90;99.90
14893;DHT22;7538;53.626;9.906;2023-03-23T09:21:55;11.40;99.90
14893;DHT22;7538;53.626;9.906;2023-03-23T09:24:21;14.00;99.90
14893;DHT22;7538;53.626;9.906;2023-03-23T09:26:48;14.00;99.90
14893;DHT22;7538;53.626;9.906;2023-03-23T09:29:15;14.10;99.90
14893;DHT22;7538;53.626;9.906;2023-03-23T09:31:44;14.10;99.90
14893;DHT22;7538;53.626;9.906;2023-03-23T09:34:12;14.10;99.90
14893;DHT22;7538;53.626;9.906;2023-03-23T09:36:42;14.10;99.90
14893;DHT22;7538;53.626;9.906;2023-03-23T09:39:09;14.20;99.90
14893;DHT22;7538;53.626;9.906;2023-03-23T09:41:52;14.30;99.90
14893;DHT22;7538;53.626;9.906;2023-03-23T09:44:27;14.60;99.90
14893;DHT22;7538;53.626;9.906;2023-03-23T09:47:00;15.20;99.90
14893;DHT22;7538;53.626;9.906;2023-03-23T09:49:32;15.70;99.90
14893;DHT22;7538;53.626;9.906;2023-03-23T09:52:05;14.70;99.90
14893;DHT22;7538;53.626;9.906;2023-03-23T09:54:35;16.70;99.90
14893;DHT22;7538;53.626;9.906;2023-03-23T09:57:04;20.70;99.90
14893;DHT22;7538;53.626;9.906;2023-03-23T09:59:35;17.50;99.90
14893;DHT22;7538;53.626;9.906;2023-03-23T10:02:11;17.60;99.90
14893;DHT22;7538;53.626;9.906;2023-03-23T10:04:44;17.50;99.90
14893;DHT22;7538;53.626;9.906;2023-03-23T10:07:16;17.50;99.90
14893;DHT22;7538;53.626;9.906;2023-03-23T10:09:45;17.50;99.90
14893;DHT22;7538;53.626;9.906;2023-03-23T10:12:24;17.50;99.90
14893;DHT22;7538;53.626;9.906;2023-03-23T10:15:09;17.80;99.90
14893;DHT22;7538;53.626;9.906;2023-03-23T10:17:43;17.90;99.90
14893;DHT22;7538;53.626;9.906;2023-03-23T10:20:24;18.50;99.90
14893;DHT22;7538;53.626;9.906;2023-03-23T10:23:00;19.70;99.90
14893;DHT22;7538;53.626;9.906;2023-03-23T10:25:29;20.60;98.40
14893;DHT22;7538;53.626;9.906;2023-03-23T10:28:04;20.80;94.60
14893;DHT22;7538;53.626;9.906;2023-03-23T10:30:36;20.60;95.60
14893;DHT22;7538;53.626;9.906;2023-03-23T10:33:08;20.60;94.20
14893;DHT22;7538;53.626;9.906;2023-03-23T10:35:38;20.40;94.00
14893;DHT22;7538;53.626;9.906;2023-03-23T10:38:13;19.90;95.00
14893;DHT22;7538;53.626;9.906;2023-03-23T10:40:48;19.50;95.90
14893;DHT22;7538;53.626;9.906;2023-03-23T10:43:16;19.20;97.50
14893;DHT22;7538;53.626;9.906;2023-03-23T10:45:44;19.00;97.30
14893;DHT22;7538;53.626;9.906;2023-03-23T10:48:15;18.80;97.80
14893;DHT22;7538;53.626;9.906;2023-03-23T10:50:48;18.50;98.20
14893;DHT22;7538;53.626;9.906;2023-03-23T10:53:20;18.40;98.20
14893;DHT22;7538;53.626;9.906;2023-03-23T10:55:47;18.10;98.80
14893;DHT22;7538;53.626;9.906;2023-03-23T10:58:23;18.00;99.60
14893;DHT22;7538;53.626;9.906;2023-03-23T11:00:50;17.80;99.90
14893;DHT22;7538;53.626;9.906;2023-03-23T11:03:24;17.60;99.90
14893;DHT22;7538;53.626;9.906;2023-03-23T11:05:56;17.40;99.90
14893;DHT22;7538;53.626;9.906;2023-03-23T11:08:26;17.30;99.90
14893;DHT22;7538;53.626;9.906;2023-03-23T11:10:56;17.30;99.90
14893;DHT22;7538;53.626;9.906;2023-03-23T11:13:29;17.30;99.90
14893;DHT22;7538;53.626;9.906;2023-03-23T11:15:56;17.30;99.90
14893;DHT22;7538;53.626;9.906;2023-03-23T11:18:25;17.30;99.90
14893;DHT22;7538;53.626;9.906;2023-03-23T11:20:55;17.30;99.90
14893;DHT22;7538;53.626;9.906;2023-03-23T11:23:25;17.30;99.90
14893;DHT22;7538;53.626;9.906;2023-03-23T11:25:59;17.40;99.90
14893;DHT22;7538;53.626;9.906;2023-03-23T11:28:31;17.50;98.20
14893;DHT22;7538;53.626;9.906;2023-03-23T11:31:00;17.30;98.60
14893;DHT22;7538;53.626;9.906;2023-03-23T11:33:35;17.20;99.00
14893;DHT22;7538;53.626;9.906;2023-03-23T11:36:04;17.10;99.00
14893;DHT22;7538;53.626;9.906;2023-03-23T11:38:33;17.00;98.90
14893;DHT22;7538;53.626;9.906;2023-03-23T11:41:01;16.80;99.00
14893;DHT22;7538;53.626;9.906;2023-03-23T11:43:27;16.90;99.50
14893;DHT22;7538;53.626;9.906;2023-03-23T11:46:02;16.80;99.90
14893;DHT22;7538;53.626;9.906;2023-03-23T11:48:35;16.80;99.00
14893;DHT22;7538;53.626;9.906;2023-03-23T11:51:06;16.80;99.40
14893;DHT22;7538;53.626;9.906;2023-03-23T11:53:45;16.90;99.70
14893;DHT22;7538;53.626;9.906;2023-03-23T11:56:21;17.10;99.10
14893;DHT22;7538;53.626;9.906;2023-03-23T11:58:49;17.20;98.50
14893;DHT22;7538;53.626;9.906;2023-03-23T12:01:29;17.20;98.00
14893;DHT22;7538;53.626;9.906;2023-03-23T12:04:03;17.10;98.40
14893;DHT22;7538;53.626;9.906;2023-03-23T12:06:38;17.00;98.30
14893;DHT22;7538;53.626;9.906;2023-03-23T12:09:21;16.80;98.50
14893;DHT22;7538;53.626;9.906;2023-03-23T12:11:58;16.70;99.60
14893;DHT22;7538;53.626;9.906;2023-03-23T12:14:32;16.50;99.90
14893;DHT22;7538;53.626;9.906;2023-03-23T12:17:11;16.30;99.90
14893;DHT22;7538;53.626;9.906;2023-03-23T12:19:46;16.10;99.90
14893;DHT22;7538;53.626;9.906;2023-03-23T12:22:28;16.00;99.90
14893;DHT22;7538;53.626;9.906;2023-03-23T12:25:12;16.00;99.90
14893;DHT22;7538;53.626;9.906;2023-03-23T12:27:49;15.80;99.90
14893;DHT22;7538;53.626;9.906;2023-03-23T12:30:29;15.60;99.90
14893;DHT22;7538;53.626;9.906;2023-03-23T12:33:08;15.50;99.90
14893;DHT22;7538;53.626;9.906;2023-03-23T12:35:49;15.40;99.90
14893;DHT22;7538;53.626;9.906;2023-03-23T12:38:48;15.40;99.90
14893;DHT22;7538;53.626;9.906;2023-03-23T12:41:19;15.50;99.90
14893;DHT22;7538;53.626;9.906;2023-03-23T12:43:53;15.50;99.90
14893;DHT22;7538;53.626;9.906;2023-03-23T12:46:46;15.60;99.90
14893;DHT22;7538;53.626;9.906;2023-03-23T12:49:19;15.70;99.90
14893;DHT22;7538;53.626;9.906;2023-03-23T12:51:51;15.70;99.90
14893;DHT22;7538;53.626;9.906;2023-03-23T12:54:26;15.70;99.90
14893;DHT22;7538;53.626;9.906;2023-03-23T12:57:00;15.60;99.90
14893;DHT22;7538;53.626;9.906;2023-03-23T12:59:32;15.60;99.90
14893;DHT22;7538;53.626;9.906;2023-03-23T13:02:05;15.60;99.90
14893;DHT22;7538;53.626;9.906;2023-03-23T13:04:37;15.60;99.90
14893;DHT22;7538;53.626;9.906;2023-03-23T13:07:08;15.80;99.90
14893;DHT22;7538;53.626;9.906;2023-03-23T13:09:48;15.90;99.90
14893;DHT22;7538;53.626;9.906;2023-03-23T13:12:18;16.10;99.90
14893;DHT22;7538;53.626;9.906;2023-03-23T13:14:53;16.20;99.90
14893;DHT22;7538;53.626;9.906;2023-03-23T13:17:29;16.30;99.90
14893;DHT22;7538;53.626;9.906;2023-03-23T13:20:23;16.40;99.90
14893;DHT22;7538;53.626;9.906;2023-03-23T13:23:01;16.40;99.90
14893;DHT22;7538;53.626;9.906;2023-03-23T13:25:42;16.50;99.90
14893;DHT22;7538;53.626;9.906;2023-03-23T13:28:16;16.50;99.90
14893;DHT22;7538;53.626;9.906;2023-03-23T13:30:57;16.60;99.90
14893;DHT22;7538;53.626;9.906;2023-03-23T13:33:24;16.70;99.90
14893;DHT22;7538;53.626;9.906;2023-03-23T13:35:51;16.80;99.90
14893;DHT22;7538;53.626;9.906;2023-03-23T13:38:23;16.90;99.90
14893;DHT22;7538;53.626;9.906;2023-03-23T13:40:51;16.90;99.90
14893;DHT22;7538;53.626;9.906;2023-03-23T13:43:28;16.90;99.90
14893;DHT22;7538;53.626;9.906;2023-03-23T13:46:07;16.70;99.90
14893;DHT22;7538;53.626;9.906;2023-03-23T13:48:42;16.60;99.90
14893;DHT22;7538;53.626;9.906;2023-03-23T13:51:25;16.50;99.90
14893;DHT22;7538;53.626;9.906;2023-03-23T13:54:14;16.30;99.90
14893;DHT22;7538;53.626;9.906;2023-03-23T13:56:42;15.80;99.90
14893;DHT22;7538;53.626;9.906;2023-03-23T13:59:15;15.10;99.90
14893;DHT22;7538;53.626;9.906;2023-03-23T14:01:43;14.50;99.90
14893;DHT22;7538;53.626;9.906;2023-03-23T14:04:14;14.00;99.90
14893;DHT22;7538;53.626;9.906;2023-03-23T14:06:42;13.60;99.90
14893;DHT22;7538;53.626;9.906;2023-03-23T14:09:14;13.30;99.90
14893;DHT22;7538;53.626;9.906;2023-03-23T14:11:48;12.90;99.90
14893;DHT22;7538;53.626;9.906;2023-03-23T14:14:23;12.70;99.90
14893;DHT22;7538;53.626;9.906;2023-03-23T14:16:51;12.60;99.90
14893;DHT22;7538;53.626;9.906;2023-03-23T14:19:23;12.50;99.90
14893;DHT22;7538;53.626;9.906;2023-03-23T14:21:53;12.60;99.90
14893;DHT22;7538;53.626;9.906;2023-03-23T14:24:22;12.50;99.90
14893;DHT22;7538;53.626;9.906;2023-03-23T14:26:51;12.60;99.90
14893;DHT22;7538;53.626;9.906;2023-03-23T14:29:20;12.70;99.90
14893;DHT22;7538;53.626;9.906;2023-03-23T14:31:53;12.80;99.90
14893;DHT22;7538;53.626;9.906;2023-03-23T14:34:22;12.90;99.90
14893;DHT22;7538;53.626;9.906;2023-03-23T14:36:52;12.90;99.90
14893;DHT22;7538;53.626;9.906;2023-03-23T14:39:22;12.90;99.90
14893;DHT22;7538;53.626;9.906;2023-03-23T14:41:51;12.90;99.90
14893;DHT22;7538;53.626;9.906;2023-03-23T14:44:23;12.90;99.90
14893;DHT22;7538;53.626;9.906;2023-03-23T14:46:51;12.90;99.90
14893;DHT22;7538;53.626;9.906;2023-03-23T14:49:21;12.90;99.90
14893;DHT22;7538;53.626;9.906;2023-03-23T14:51:53;12.90;99.90
14893;DHT22;7538;53.626;9.906;2023-03-23T14:56:50;12.90;99.90
14893;DHT22;7538;53.626;9.906;2023-03-23T14:59:17;12.90;99.90
14893;DHT22;7538;53.626;9.906;2023-03-23T15:01:47;11.80;99.90
14893;DHT22;7538;53.626;9.906;2023-03-23T15:04:17;12.90;99.90
14893;DHT22;7538;53.626;9.906;2023-03-23T15:06:47;13.00;99.90
14893;DHT22;7538;53.626;9.906;2023-03-23T15:09:16;13.00;99.90
14893;DHT22;7538;53.626;9.906;2023-03-23T15:11:52;13.00;99.90
14893;DHT22;7538;53.626;9.906;2023-03-23T15:14:22;13.00;99.90
14893;DHT22;7538;53.626;9.906;2023-03-23T15:16:52;13.00;99.90
14893;DHT22;7538;53.626;9.906;2023-03-23T15:19:22;13.10;99.90
14893;DHT22;7538;53.626;9.906;2023-03-23T15:21:52;13.20;99.90
14893;DHT22;7538;53.626;9.906;2023-03-23T15:24:25;13.20;99.90
14893;DHT22;7538;53.626;9.906;2023-03-23T15:26:53;13.30;99.90
14893;DHT22;7538;53.626;9.906;2023-03-23T15:29:21;13.30;99.90
14893;DHT22;7538;53.626;9.906;2023-03-23T15:31:52;13.30;99.90
14893;DHT22;7538;53.626;9.906;2023-03-23T15:34:32;13.30;99.90
14893;DHT22;7538;53.626;9.906;2023-03-23T15:37:01;13.30;99.90
14893;DHT22;7538;53.626;9.906;2023-03-23T15:39:29;13.20;99.90
14893;DHT22;7538;53.626;9.906;2023-03-23T15:41:57;13.10;99.90
14893;DHT22;7538;53.626;9.906;2023-03-23T15:44:28;13.10;99.90
14893;DHT22;7538;53.626;9.906;2023-03-23T15:47:14;13.00;99.90
14893;DHT22;7538;53.626;9.906;2023-03-23T15:49:42;13.00;99.90
14893;DHT22;7538;53.626;9.906;2023-03-23T15:52:10;12.90;99.90
14893;DHT22;7538;53.626;9.906;2023-03-23T15:54:38;12.80;99.90
14893;DHT22;7538;53.626;9.906;2023-03-23T15:57:05;12.80;99.90
14893;DHT22;7538;53.626;9.906;2023-03-23T15:59:35;12.70;99.90
14893;DHT22;7538;53.626;9.906;2023-03-23T16:02:02;12.70;99.90
14893;DHT22;7538;53.626;9.906;2023-03-23T16:04:30;12.70;99.90
14893;DHT22;7538;53.626;9.906;2023-03-23T16:06:58;12.70;99.90
14893;DHT22;7538;53.626;9.906;2023-03-23T16:09:26;12.70;99.90
14893;DHT22;7538;53.626;9.906;2023-03-23T16:11:52;12.70;99.90
14893;DHT22;7538;53.626;9.906;2023-03-23T16:14:20;12.50;99.90